Juan Jose Paso, Argentina
Current Conditions -  °F | °C
As of 12:00 AM on Wednesday 26 Nov 2014 (Local Time) from SAOC Reporting Station
Clear Clear  
Wind Chill: 64°   Ceiling: Unl
Heat Index: 64°   Visibility: 6mi
Dew Point: 48°   Wind: 8mph
Humidity: 56%   Direction: 360°N
Pressure: 29.91"   Gusts: NA
Location:  35.83°S, 62.27°W
Report Text: SAOC 260300Z 36007KT 9999 18/09 Q1013
Loading
Personal Weather Stations






























Interactive Weather Map New forecast layout! Learn more

10-Day Weather Forecast

Advertisements
Track Severe Weather on mobile